Time;durP1;ratioP1;P1;durP2;ratioP2;P2;SDS_P1;SDS_P2;PMS_P1;PMS_P2;Temp;Humidity;BMP_temperature;BMP_pressure;BME280_temperature;BME280_humidity;BME280_pressure;Samples;Min_cycle;Max_cycle;Signal;HPM_P1;HPM_P2
2022/12/10 00:00:18;;;;;;;21.40;12.95;;;0.00;1.00;;;;;;6224947;22;20240;-87
2022/12/10 00:03:15;;;;;;;19.38;12.48;;;0.00;1.00;;;;;;6228474;22;20221;-87
2022/12/10 00:05:47;;;;;;;19.58;11.50;;;0.00;1.00;;;;;;6219363;22;20732;-87
2022/12/10 00:08:20;;;;;;;22.00;13.00;;;0.00;1.00;;;;;;6231495;22;20211;-88
2022/12/10 00:10:50;;;;;;;19.55;11.57;;;0.00;1.00;;;;;;6226500;22;20210;-87
2022/12/10 00:13:20;;;;;;;24.42;13.38;;;0.00;1.00;;;;;;6209906;22;20230;-87
2022/12/10 00:15:58;;;;;;;21.83;12.57;;;0.00;1.00;;;;;;6228774;22;20260;-87
2022/12/10 00:18:41;;;;;;;23.30;12.90;;;0.00;1.00;;;;;;6235593;22;20214;-87
2022/12/10 00:21:15;;;;;;;21.25;11.85;;;0.10;1.00;;;;;;6241228;22;20233;-86
2022/12/10 00:23:49;;;;;;;26.63;14.30;;;0.10;1.00;;;;;;6234998;22;20228;-88
2022/12/10 00:26:21;;;;;;;24.75;13.48;;;0.10;1.00;;;;;;6248212;22;20207;-88
2022/12/10 00:28:59;;;;;;;25.60;13.93;;;0.00;1.00;;;;;;6252041;22;20212;-86
2022/12/10 00:31:32;;;;;;;25.20;14.13;;;0.00;1.00;;;;;;6238627;22;20205;-86
2022/12/10 00:34:08;;;;;;;25.05;14.40;;;0.00;1.00;;;;;;6242010;22;20216;-86
2022/12/10 00:36:48;;;;;;;25.15;13.18;;;0.00;1.00;;;;;;6230763;22;20214;-87
2022/12/10 00:39:28;;;;;;;22.25;13.50;;;0.00;1.00;;;;;;6225833;22;20216;-87
2022/12/10 00:42:00;;;;;;;24.05;14.27;;;0.00;1.00;;;;;;6222042;22;20204;-87
2022/12/10 00:44:39;;;;;;;23.83;12.23;;;0.00;1.00;;;;;;6223249;22;20272;-87
2022/12/10 00:47:08;;;;;;;24.85;13.48;;;0.00;1.00;;;;;;6222476;22;20641;-87
2022/12/10 00:49:41;;;;;;;22.05;13.88;;;0.00;1.00;;;;;;6227879;22;20237;-87
2022/12/10 00:52:10;;;;;;;30.05;15.88;;;-0.10;1.00;;;;;;6235320;22;20545;-87
2022/12/10 00:54:40;;;;;;;27.20;16.27;;;-0.10;1.00;;;;;;6193272;22;20203;-87
2022/12/10 00:57:09;;;;;;;25.48;14.48;;;-0.10;1.00;;;;;;6228174;22;20217;-88
2022/12/10 00:59:44;;;;;;;26.45;14.30;;;-0.20;1.00;;;;;;6213734;22;20244;-87
2022/12/10 01:02:12;;;;;;;24.13;14.50;;;-0.10;1.00;;;;;;6240455;22;20896;-88
2022/12/10 01:05:02;;;;;;;23.35;13.10;;;-0.10;1.00;;;;;;6225358;22;20193;-88
2022/12/10 01:07:31;;;;;;;26.23;13.48;;;-0.10;1.00;;;;;;6210568;22;20899;-87
2022/12/10 01:10:04;;;;;;;24.77;13.70;;;-0.10;1.00;;;;;;6244478;22;20202;-87
2022/12/10 01:12:32;;;;;;;32.85;23.30;;;-0.20;1.00;;;;;;6219387;22;20921;-88
2022/12/10 01:15:01;;;;;;;26.40;16.33;;;-0.20;1.00;;;;;;6219050;22;20210;-86
2022/12/10 01:17:29;;;;;;;25.40;14.75;;;-0.20;1.00;;;;;;6213454;22;20273;-88
2022/12/10 01:19:57;;;;;;;25.40;14.80;;;-0.20;1.00;;;;;;6228621;22;20267;-88
2022/12/10 01:22:24;;;;;;;21.25;12.88;;;-0.20;1.00;;;;;;6194311;22;20230;-87
2022/12/10 01:24:55;;;;;;;25.25;14.57;;;-0.20;1.00;;;;;;6225591;22;20260;-87
2022/12/10 01:27:26;;;;;;;23.88;14.60;;;-0.20;1.00;;;;;;6223715;22;20691;-87
2022/12/10 01:29:56;;;;;;;21.85;13.90;;;-0.10;1.00;;;;;;6232904;22;20210;-86
2022/12/10 01:32:24;;;;;;;26.88;13.45;;;-0.10;1.00;;;;;;6212122;22;20728;-88
2022/12/10 01:34:54;;;;;;;21.67;12.88;;;-0.20;1.00;;;;;;6216897;22;20241;-88
2022/12/10 01:37:25;;;;;;;24.60;13.95;;;-0.10;1.00;;;;;;6191435;22;20724;-87
2022/12/10 01:39:58;;;;;;;23.63;14.27;;;-0.20;1.00;;;;;;6209214;22;21008;-87
2022/12/10 01:42:25;;;;;;;24.40;13.57;;;-0.20;1.00;;;;;;6226286;22;20209;-88
2022/12/10 01:45:20;;;;;;;23.20;14.18;;;-0.20;1.00;;;;;;6225290;22;20688;-87
2022/12/10 01:47:54;;;;;;;23.20;13.82;;;-0.30;1.00;;;;;;6208651;22;20692;-88
2022/12/10 01:50:32;;;;;;;23.48;13.63;;;-0.40;1.00;;;;;;6214057;22;20781;-87
2022/12/10 01:53:02;;;;;;;24.33;13.20;;;-0.40;1.00;;;;;;6208896;22;20213;-88
2022/12/10 01:55:49;;;;;;;23.98;12.52;;;-0.40;1.00;;;;;;6210761;22;20213;-88
2022/12/10 01:58:21;;;;;;;23.80;14.00;;;-0.40;1.00;;;;;;6235588;22;20218;-87
2022/12/10 02:00:58;;;;;;;23.13;12.88;;;-0.50;1.00;;;;;;6203994;22;20240;-87
2022/12/10 02:03:51;;;;;;;20.02;13.13;;;-0.50;1.00;;;;;;6215157;22;20290;-87
2022/12/10 02:06:46;;;;;;;25.27;13.30;;;-0.50;1.00;;;;;;6224995;22;20213;-88
2022/12/10 02:09:30;;;;;;;25.88;14.38;;;-0.50;1.00;;;;;;6210101;22;20242;-88
2022/12/10 02:12:10;;;;;;;24.48;12.63;;;-0.50;1.00;;;;;;6217163;22;20653;-87
2022/12/10 02:15:03;;;;;;;;;;;;;;;;;;;;;
2022/12/10 02:18:17;;;;;;;;;;;;;;;;;;;;;
2022/12/10 02:21:05;;;;;;;;;;;;;;;;;;;;;
2022/12/10 02:23:38;;;;;;;22.50;13.13;;;-0.60;1.00;;;;;;6203528;22;39550;-88
2022/12/10 02:26:16;;;;;;;21.45;12.95;;;-0.60;1.00;;;;;;6227436;22;20948;-88
2022/12/10 02:29:03;;;;;;;21.30;12.25;;;-0.60;1.00;;;;;;6206441;22;20209;-87
2022/12/10 02:31:34;;;;;;;23.75;12.93;;;-0.70;1.00;;;;;;6191299;22;20205;-87
2022/12/10 02:34:11;;;;;;;23.58;14.10;;;-0.80;1.00;;;;;;6228790;22;20210;-87
2022/12/10 02:36:48;;;;;;;23.02;12.82;;;-0.90;1.00;;;;;;6202581;22;20205;-88
2022/12/10 02:39:22;;;;;;;21.95;13.00;;;-0.90;1.00;;;;;;6198047;22;20217;-88
2022/12/10 02:41:53;;;;;;;24.00;13.60;;;-1.00;1.00;;;;;;6208454;22;20216;-87
2022/12/10 02:44:26;;;;;;;21.88;13.45;;;-1.10;1.00;;;;;;6191100;22;20644;-88
2022/12/10 02:47:02;;;;;;;24.77;14.52;;;-1.10;1.00;;;;;;6223374;22;20641;-87
2022/12/10 02:49:35;;;;;;;22.75;13.02;;;-1.10;1.00;;;;;;6220650;22;20233;-87
2022/12/10 02:52:09;;;;;;;27.17;14.02;;;-1.10;1.00;;;;;;6199452;22;20209;-87
2022/12/10 02:54:40;;;;;;;23.17;13.27;;;-1.20;1.00;;;;;;6194689;22;20266;-87
2022/12/10 03:00:41;;;;;;;22.30;13.10;;;-1.20;1.00;;;;;;6215395;22;20213;-87
2022/12/10 03:03:28;;;;;;;24.15;14.05;;;-1.20;1.00;;;;;;6227641;22;20277;-88
2022/12/10 03:06:11;;;;;;;25.15;14.95;;;-1.20;1.00;;;;;;6196781;22;20210;-88
2022/12/10 03:08:52;;;;;;;24.48;15.07;;;-1.20;1.00;;;;;;6213193;22;20207;-87
2022/12/10 03:11:35;;;;;;;22.55;12.70;;;-1.20;1.00;;;;;;6207203;22;20211;-87
2022/12/10 03:14:25;;;;;;;28.05;14.77;;;-1.20;1.00;;;;;;6209618;22;20213;-87
2022/12/10 03:17:02;;;;;;;27.85;16.67;;;-1.10;1.00;;;;;;6211709;22;20213;-87
2022/12/10 03:19:49;;;;;;;30.50;17.65;;;-1.10;1.00;;;;;;6200389;22;20209;-87
2022/12/10 03:22:28;;;;;;;26.98;16.20;;;-1.10;1.00;;;;;;6209145;22;20209;-88
2022/12/10 03:25:06;;;;;;;29.88;16.10;;;-1.10;1.00;;;;;;6234067;22;20688;-87
2022/12/10 03:27:34;;;;;;;31.65;18.02;;;-1.20;1.00;;;;;;6215760;22;20258;-87
2022/12/10 03:30:04;;;;;;;26.88;16.20;;;-1.20;1.00;;;;;;6243228;22;20212;-88
2022/12/10 03:32:44;;;;;;;29.48;17.23;;;-1.10;1.00;;;;;;6217446;22;20250;-88
2022/12/10 03:35:24;;;;;;;27.45;16.10;;;-1.10;1.00;;;;;;6232654;22;20236;-86
2022/12/10 03:38:02;;;;;;;28.75;16.15;;;-1.10;1.00;;;;;;6232982;22;20301;-87
2022/12/10 03:43:42;;;;;;;28.30;16.85;;;-1.10;1.00;;;;;;6200890;22;20963;-87
2022/12/10 03:46:21;;;;;;;27.50;15.98;;;-1.00;1.00;;;;;;6224909;22;20228;-87
2022/12/10 03:49:02;;;;;;;27.48;15.43;;;-1.10;1.00;;;;;;6227088;22;21008;-88
2022/12/10 03:51:34;;;;;;;27.00;15.95;;;-1.00;1.00;;;;;;6195181;22;20210;-88
2022/12/10 03:54:16;;;;;;;;;;;;;;;;;;;;;
2022/12/10 03:56:45;;;;;;;28.88;16.70;;;-1.00;1.00;;;;;;6198641;22;50528;-87
2022/12/10 03:59:23;;;;;;;31.13;17.35;;;-1.00;1.00;;;;;;6218744;22;20279;-87
2022/12/10 04:01:52;;;;;;;29.83;16.77;;;-1.00;1.00;;;;;;6212016;22;20204;-88
2022/12/10 04:04:22;;;;;;;27.40;17.33;;;-1.00;1.00;;;;;;6228381;22;20193;-87
2022/12/10 04:06:54;;;;;;;27.05;17.10;;;-1.00;1.00;;;;;;6245427;22;20257;-87
2022/12/10 04:09:23;;;;;;;27.40;16.50;;;-1.00;1.00;;;;;;6212551;22;20229;-87
2022/12/10 04:11:51;;;;;;;36.08;20.08;;;-0.90;1.00;;;;;;6243975;22;20232;-87
2022/12/10 04:17:11;;;;;;;26.98;17.08;;;-0.70;1.00;;;;;;6214075;22;20244;-88
2022/12/10 04:19:38;;;;;;;35.42;18.92;;;-0.70;1.00;;;;;;6232402;22;20218;-87
2022/12/10 04:27:41;;;;;;;32.65;18.08;;;-0.60;1.00;;;;;;6219739;22;20209;-87
2022/12/10 04:30:19;;;;;;;30.35;18.35;;;-0.50;1.00;;;;;;6218642;22;20220;-88
2022/12/10 04:32:48;;;;;;;36.40;18.73;;;-0.50;1.00;;;;;;6227197;22;20218;-87
2022/12/10 04:35:15;;;;;;;30.58;17.58;;;-0.50;1.00;;;;;;6225901;22;20221;-87
2022/12/10 04:37:45;;;;;;;33.53;18.55;;;-0.60;1.00;;;;;;6220492;22;20308;-88
2022/12/10 04:40:17;;;;;;;29.08;16.70;;;-0.60;1.00;;;;;;6224728;22;20246;-88
2022/12/10 04:43:00;;;;;;;33.55;20.50;;;-0.50;1.00;;;;;;6216341;22;20219;-88
2022/12/10 04:45:42;;;;;;;30.10;17.08;;;-0.50;1.00;;;;;;6214221;22;20233;-87
2022/12/10 04:48:21;;;;;;;33.42;19.15;;;-0.40;1.00;;;;;;6221439;22;20202;-88
2022/12/10 04:51:19;;;;;;;31.55;17.35;;;-0.40;1.00;;;;;;6235937;22;20221;-88
2022/12/10 04:54:03;;;;;;;28.23;16.80;;;-0.30;1.00;;;;;;6243126;22;20257;-88
2022/12/10 04:56:41;;;;;;;30.48;17.23;;;-0.30;1.00;;;;;;6231239;22;20213;-87
2022/12/10 04:59:23;;;;;;;30.70;19.20;;;-0.30;1.00;;;;;;6248693;22;20200;-87
2022/12/10 05:34:34;;;;;;;28.30;15.67;;;-0.10;1.00;;;;;;6057592;22;3011167;-77
2022/12/10 05:37:06;;;;;;;26.63;16.20;;;0.10;1.00;;;;;;6088114;23;20213;-80
2022/12/10 05:39:34;;;;;;;26.48;18.52;;;0.10;1.00;;;;;;6125731;23;20465;-79
2022/12/10 05:42:12;;;;;;;28.52;16.55;;;0.20;1.00;;;;;;6118968;23;20201;-85
2022/12/10 05:44:45;;;;;;;25.75;16.30;;;0.20;1.00;;;;;;6117755;23;20215;-83
2022/12/10 05:47:14;;;;;;;27.48;16.80;;;0.20;1.00;;;;;;6114870;23;20216;-82
2022/12/10 05:49:42;;;;;;;26.65;16.35;;;0.20;1.00;;;;;;6117193;23;20213;-86
2022/12/10 05:52:15;;;;;;;25.17;15.25;;;0.20;1.00;;;;;;6119305;23;20208;-81
2022/12/10 05:54:45;;;;;;;27.10;17.08;;;0.30;1.00;;;;;;6116889;23;20769;-83
2022/12/10 05:57:14;;;;;;;25.80;15.98;;;0.30;1.00;;;;;;6125383;23;20217;-81
2022/12/10 05:59:43;;;;;;;22.13;14.63;;;0.40;1.00;;;;;;6082447;23;20212;-79
2022/12/10 06:02:15;;;;;;;23.13;15.38;;;0.40;1.00;;;;;;6135202;23;20206;-79
2022/12/10 06:05:07;;;;;;;23.83;14.65;;;0.40;1.00;;;;;;6104890;23;20613;-81
2022/12/10 06:07:54;;;;;;;21.77;14.05;;;0.50;1.00;;;;;;6078479;23;20278;-81
2022/12/10 06:10:36;;;;;;;27.35;16.15;;;0.40;1.00;;;;;;6120754;23;20225;-84
2022/12/10 06:13:21;;;;;;;22.23;13.48;;;0.50;1.00;;;;;;6117899;23;21008;-83
2022/12/10 06:15:56;;;;;;;22.00;14.73;;;0.50;1.00;;;;;;6112308;23;20214;-83
2022/12/10 06:18:33;;;;;;;24.27;14.85;;;0.60;1.00;;;;;;6088546;23;20218;-79
2022/12/10 06:21:26;;;;;;;;;;;;;;;;;;;;;
2022/12/10 06:23:58;;;;;;;21.30;13.50;;;0.60;1.00;;;;;;6102958;23;49498;-82
2022/12/10 06:26:33;;;;;;;21.23;13.88;;;0.70;1.00;;;;;;6117081;23;20301;-78
2022/12/10 06:29:04;;;;;;;21.45;13.30;;;0.70;1.00;;;;;;6110468;23;20217;-84
2022/12/10 06:31:44;;;;;;;21.98;14.40;;;0.70;1.00;;;;;;6124485;23;20216;-82
2022/12/10 06:34:14;;;;;;;20.38;14.57;;;0.60;1.00;;;;;;6095604;23;20339;-80
2022/12/10 06:36:51;;;;;;;20.95;14.00;;;0.60;1.00;;;;;;6069737;23;20211;-80
2022/12/10 06:39:21;;;;;;;21.63;14.60;;;0.70;1.00;;;;;;6088585;23;20904;-80
2022/12/10 06:42:03;;;;;;;20.88;13.93;;;0.70;1.00;;;;;;6103591;23;20254;-82
2022/12/10 06:44:39;;;;;;;19.77;13.00;;;0.60;1.00;;;;;;6090171;23;20969;-79
2022/12/10 06:47:07;;;;;;;18.38;12.20;;;0.60;1.00;;;;;;6108625;23;20210;-80
2022/12/10 06:49:35;;;;;;;19.90;12.70;;;0.70;1.00;;;;;;6110965;23;20217;-79
2022/12/10 06:52:13;;;;;;;21.88;14.18;;;0.70;1.00;;;;;;6115193;23;20213;-85
2022/12/10 06:54:53;;;;;;;21.10;13.30;;;0.70;1.00;;;;;;6097650;23;20242;-81
2022/12/10 06:57:24;;;;;;;18.48;13.50;;;0.70;1.00;;;;;;6106737;23;20205;-79
2022/12/10 07:00:04;;;;;;;20.10;14.15;;;0.70;1.00;;;;;;6110711;23;20266;-78
2022/12/10 07:02:57;;;;;;;18.27;12.73;;;0.70;1.00;;;;;;6097378;23;20215;-83
2022/12/10 07:05:26;;;;;;;18.83;11.50;;;0.70;1.00;;;;;;6121964;23;20227;-79
2022/12/10 07:07:56;;;;;;;22.38;13.95;;;0.70;1.00;;;;;;6111261;23;20218;-83
2022/12/10 07:10:45;;;;;;;20.25;13.02;;;0.80;1.00;;;;;;6087480;23;20214;-80
2022/12/10 07:13:17;;;;;;;20.38;12.88;;;0.80;1.00;;;;;;6078819;23;20218;-83
2022/12/10 07:15:54;;;;;;;17.50;12.63;;;0.70;1.00;;;;;;6076949;23;20220;-80
2022/12/10 07:18:27;;;;;;;18.17;12.43;;;0.70;1.00;;;;;;6112187;23;20202;-80
2022/12/10 07:20:56;;;;;;;22.02;14.07;;;0.70;1.00;;;;;;6115598;23;20213;-84
2022/12/10 07:23:30;;;;;;;22.40;15.02;;;0.60;1.00;;;;;;6097415;23;20245;-82
2022/12/10 07:26:13;;;;;;;22.40;13.70;;;0.60;1.00;;;;;;6114055;23;20221;-84
2022/12/10 07:29:05;;;;;;;20.83;13.13;;;0.60;1.00;;;;;;6082130;23;20214;-84
2022/12/10 07:31:36;;;;;;;18.30;12.52;;;0.60;1.00;;;;;;6035893;23;20220;-82
2022/12/10 07:37:05;;;;;;;19.60;12.65;;;0.50;1.00;;;;;;6104354;23;20245;-82
2022/12/10 07:42:47;;;;;;;21.80;13.43;;;0.60;1.00;;;;;;6087494;23;20217;-77
2022/12/10 07:45:17;;;;;;;24.05;14.88;;;0.60;1.00;;;;;;6094235;23;20218;-83
2022/12/10 07:47:56;;;;;;;19.42;12.82;;;0.60;1.00;;;;;;6111044;23;20211;-78
2022/12/10 07:50:35;;;;;;;18.92;12.60;;;0.70;1.00;;;;;;6094782;23;20221;-78
2022/12/10 07:53:07;;;;;;;19.75;13.65;;;0.70;1.00;;;;;;6104937;23;20233;-79
2022/12/10 07:55:37;;;;;;;18.90;13.80;;;0.70;1.00;;;;;;6094318;23;20216;-82
2022/12/10 07:58:14;;;;;;;19.38;12.48;;;0.60;1.00;;;;;;6112278;23;20219;-86
2022/12/10 08:01:15;;;;;;;20.58;13.98;;;0.60;1.00;;;;;;6112181;23;20335;-80
2022/12/10 08:06:35;;;;;;;22.80;14.38;;;0.60;1.00;;;;;;6087590;23;20217;-78
2022/12/10 08:09:05;;;;;;;21.38;13.27;;;0.70;1.00;;;;;;6109995;23;20224;-82
2022/12/10 08:11:35;;;;;;;20.92;14.43;;;0.70;1.00;;;;;;6096352;23;20218;-82
2022/12/10 08:14:07;;;;;;;17.67;11.65;;;0.70;1.00;;;;;;6113033;23;20226;-85
2022/12/10 08:16:37;;;;;;;16.80;11.15;;;0.80;1.00;;;;;;6109406;23;20990;-82
2022/12/10 08:19:04;;;;;;;19.02;13.40;;;1.10;1.00;;;;;;6110120;23;20221;-82
2022/12/10 08:21:33;;;;;;;20.15;13.05;;;1.10;1.00;;;;;;6122230;23;20215;-85
2022/12/10 08:24:16;;;;;;;24.38;14.93;;;1.30;1.00;;;;;;6115161;23;20213;-79
2022/12/10 08:26:43;;;;;;;21.27;13.82;;;1.30;1.00;;;;;;6097482;23;20232;-78
2022/12/10 08:29:22;;;;;;;18.25;11.60;;;1.20;1.00;;;;;;6104807;23;20237;-79
2022/12/10 08:31:50;;;;;;;19.73;12.85;;;1.20;1.00;;;;;;6113723;23;20214;-82
2022/12/10 08:34:26;;;;;;;20.02;13.95;;;1.30;1.00;;;;;;6112388;23;20326;-80
2022/12/10 08:36:57;;;;;;;20.20;13.73;;;1.30;1.00;;;;;;6150463;23;20261;-78
2022/12/10 08:39:27;;;;;;;23.67;15.18;;;1.30;1.00;;;;;;6136731;23;20206;-82
2022/12/10 08:41:56;;;;;;;19.40;13.95;;;1.40;1.00;;;;;;6145868;23;20213;-83
2022/12/10 08:44:26;;;;;;;20.40;13.60;;;1.30;1.00;;;;;;6128067;23;20251;-79
2022/12/10 08:46:54;;;;;;;23.48;14.50;;;1.30;1.00;;;;;;6125785;23;20215;-79
2022/12/10 08:49:27;;;;;;;19.10;13.93;;;1.30;1.00;;;;;;6117258;23;20224;-80
2022/12/10 08:51:54;;;;;;;19.33;12.98;;;1.30;1.00;;;;;;6138186;23;20627;-80
2022/12/10 08:54:25;;;;;;;19.55;13.20;;;1.20;1.00;;;;;;6136607;23;20220;-77
2022/12/10 08:56:54;;;;;;;20.58;14.52;;;1.00;1.00;;;;;;6135302;23;20218;-77
2022/12/10 08:59:27;;;;;;;19.83;14.48;;;1.00;1.00;;;;;;6136476;23;20280;-81
2022/12/10 09:01:55;;;;;;;19.42;13.30;;;1.00;1.00;;;;;;6135785;23;20249;-82
2022/12/10 09:04:27;;;;;;;22.40;13.50;;;1.00;1.00;;;;;;6137933;23;20209;-78
2022/12/10 09:06:54;;;;;;;19.73;13.48;;;1.00;1.00;;;;;;6142692;23;20220;-78
2022/12/10 09:09:36;;;;;;;21.63;13.35;;;1.00;1.00;;;;;;6139404;23;20209;-84
2022/12/10 09:12:07;;;;;;;19.55;13.10;;;1.00;1.00;;;;;;6134310;23;20248;-77
2022/12/10 09:14:38;;;;;;;19.40;14.95;;;1.00;1.00;;;;;;6147579;23;20272;-74
2022/12/10 09:17:06;;;;;;;22.33;15.55;;;1.00;1.00;;;;;;6137713;23;20429;-80
2022/12/10 09:19:34;;;;;;;21.30;15.02;;;1.00;1.00;;;;;;6127672;23;20214;-80
2022/12/10 09:22:05;;;;;;;22.88;15.25;;;1.00;1.00;;;;;;6155045;23;20245;-78
2022/12/10 09:24:32;;;;;;;20.75;14.68;;;1.10;1.00;;;;;;6134515;23;20222;-82
2022/12/10 09:27:07;;;;;;;16.55;12.90;;;1.10;1.00;;;;;;6140820;23;20216;-80
2022/12/10 09:29:37;;;;;;;19.45;13.77;;;1.20;1.00;;;;;;6140233;23;20233;-80
2022/12/10 09:32:05;;;;;;;35.80;25.02;;;1.20;1.00;;;;;;6143229;23;20230;-81
2022/12/10 09:34:32;;;;;;;21.92;15.95;;;1.20;1.00;;;;;;6141017;23;20224;-79
2022/12/10 09:37:04;;;;;;;21.63;14.80;;;1.20;1.00;;;;;;6140375;23;20212;-79
2022/12/10 09:39:30;;;;;;;20.38;15.32;;;1.20;1.00;;;;;;6137199;23;20274;-83
2022/12/10 09:42:22;;;;;;;18.05;13.50;;;1.30;1.00;;;;;;6131453;23;20850;-78
2022/12/10 09:45:04;;;;;;;21.88;15.80;;;1.20;1.00;;;;;;6110803;23;20218;-77
2022/12/10 09:47:37;;;;;;;18.77;13.15;;;1.20;1.00;;;;;;6112613;23;20218;-78
2022/12/10 09:50:17;;;;;;;21.50;15.60;;;1.20;1.00;;;;;;6109807;23;20202;-81
2022/12/10 09:52:49;;;;;;;22.25;16.13;;;1.20;1.00;;;;;;6107159;23;20206;-77
2022/12/10 09:55:24;;;;;;;21.48;15.30;;;1.30;1.00;;;;;;6117586;23;21037;-81
2022/12/10 09:58:11;;;;;;;20.15;14.80;;;1.20;1.00;;;;;;6119884;23;20277;-76
2022/12/10 10:00:44;;;;;;;24.13;15.95;;;1.30;1.00;;;;;;6140279;23;20281;-84
2022/12/10 10:03:26;;;;;;;19.23;14.55;;;1.30;1.00;;;;;;6145107;23;20221;-87
2022/12/10 10:05:56;;;;;;;20.33;14.65;;;1.20;1.00;;;;;;6109136;23;20219;-85
2022/12/10 10:08:30;;;;;;;19.90;13.65;;;1.20;1.00;;;;;;6116595;23;20234;-86
2022/12/10 10:11:01;;;;;;;20.38;14.80;;;1.20;1.00;;;;;;6114614;23;20218;-81
2022/12/10 10:13:37;;;;;;;21.25;15.30;;;1.30;1.00;;;;;;6106932;23;20219;-80
2022/12/10 10:16:25;;;;;;;20.58;14.48;;;1.30;1.00;;;;;;6108975;23;20217;-77
2022/12/10 10:19:01;;;;;;;22.95;15.23;;;1.30;1.00;;;;;;6097875;23;20218;-78
2022/12/10 10:21:35;;;;;;;22.63;14.43;;;1.30;1.00;;;;;;6108404;23;20218;-79
2022/12/10 10:24:09;;;;;;;23.23;15.05;;;1.30;1.00;;;;;;6111905;23;20223;-78
2022/12/10 10:26:47;;;;;;;19.95;14.77;;;1.40;1.00;;;;;;6107809;23;20233;-84
2022/12/10 10:29:26;;;;;;;23.63;16.63;;;1.40;1.00;;;;;;6112984;23;20292;-76
2022/12/10 10:35:25;;;;;;;20.90;15.38;;;1.40;1.00;;;;;;6119229;23;20214;-81
2022/12/10 10:37:57;;;;;;;23.35;15.65;;;1.50;1.00;;;;;;6142576;23;20206;-82
2022/12/10 10:40:50;;;;;;;22.08;15.52;;;1.60;1.00;;;;;;6143444;23;20205;-80
2022/12/10 10:43:35;;;;;;;22.88;15.18;;;1.70;1.00;;;;;;6110846;23;20222;-81
2022/12/10 10:46:17;;;;;;;20.35;14.93;;;1.70;1.00;;;;;;6114887;23;20229;-79
2022/12/10 10:48:50;;;;;;;22.33;15.05;;;1.80;1.00;;;;;;6128653;23;20223;-81
2022/12/10 10:51:28;;;;;;;19.67;15.90;;;1.80;1.00;;;;;;6111940;23;21019;-76
2022/12/10 10:53:59;;;;;;;22.45;16.27;;;1.90;1.00;;;;;;6103179;23;21152;-82
2022/12/10 10:56:30;;;;;;;24.27;19.20;;;1.90;1.00;;;;;;6111523;23;20219;-75
2022/12/10 11:02:26;;;;;;;20.25;15.25;;;2.00;1.00;;;;;;6039540;23;20302;-88
2022/12/10 11:05:25;;;;;;;;;;;;;;;;;;;;;
2022/12/10 11:08:40;;;;;;;;;;;;;;;;;;;;;
2022/12/10 11:17:28;;;;;;;25.08;18.23;;;1.90;1.00;;;;;;6094991;23;20210;-85
2022/12/10 11:23:27;;;;;;;;;;;;;;;;;;;;;
2022/12/10 11:29:35;;;;;;;25.65;16.98;;;2.00;1.00;;;;;;6099893;23;20221;-84
2022/12/10 11:32:25;;;;;;;21.85;16.73;;;1.90;1.00;;;;;;6157496;23;20535;-85
2022/12/10 11:35:21;;;;;;;25.38;19.15;;;1.90;1.00;;;;;;6139295;23;20209;-85
2022/12/10 11:37:58;;;;;;;21.90;16.33;;;1.90;1.00;;;;;;6128074;23;20220;-83
2022/12/10 11:40:43;;;;;;;23.48;16.15;;;2.00;1.00;;;;;;6118893;23;20226;-80
2022/12/10 11:43:34;;;;;;;24.38;15.90;;;2.00;1.00;;;;;;6152375;23;20931;-82
2022/12/10 11:46:26;;;;;;;22.35;14.45;;;1.90;1.00;;;;;;6139119;23;20213;-82
2022/12/10 11:49:08;;;;;;;23.88;15.98;;;2.10;1.00;;;;;;6127033;23;20253;-82
2022/12/10 11:51:44;;;;;;;20.63;14.95;;;2.00;1.00;;;;;;6137697;23;20936;-82
2022/12/10 11:54:54;;;;;;;23.23;16.67;;;2.10;1.00;;;;;;6128513;23;20213;-83
2022/12/10 11:57:48;;;;;;;25.38;16.33;;;2.10;1.00;;;;;;6102732;23;20990;-83
2022/12/10 12:00:36;;;;;;;25.25;17.30;;;2.00;1.00;;;;;;6092792;23;20213;-80
2022/12/10 12:03:38;;;;;;;24.00;16.05;;;2.00;1.00;;;;;;6129299;23;20221;-82
2022/12/10 12:06:56;;;;;;;21.25;15.48;;;1.90;1.00;;;;;;6142216;23;20976;-83
2022/12/10 12:09:35;;;;;;;23.80;17.45;;;1.80;1.00;;;;;;6012710;23;20221;-77
2022/12/10 12:12:17;;;;;;;22.13;15.93;;;1.70;1.00;;;;;;6161997;23;20304;-79
2022/12/10 12:14:51;;;;;;;25.45;16.65;;;1.70;1.00;;;;;;6173916;23;20204;-77
2022/12/10 12:17:30;;;;;;;23.52;16.35;;;1.70;1.00;;;;;;6170469;23;20215;-79
2022/12/10 12:20:17;;;;;;;21.77;15.32;;;1.70;1.00;;;;;;6171977;23;20236;-79
2022/12/10 12:22:52;;;;;;;29.83;20.20;;;1.60;1.00;;;;;;6170266;23;20209;-76
2022/12/10 12:25:29;;;;;;;23.73;16.13;;;1.50;1.00;;;;;;6170545;23;20270;-77
2022/12/10 12:28:15;;;;;;;23.50;15.63;;;1.50;1.00;;;;;;6172880;23;20209;-78
2022/12/10 12:30:48;;;;;;;23.00;16.20;;;1.40;1.00;;;;;;6172113;23;20226;-82
2022/12/10 12:33:29;;;;;;;23.55;17.17;;;1.40;1.00;;;;;;6142438;23;20217;-82
2022/12/10 12:36:07;;;;;;;24.80;17.00;;;1.40;1.00;;;;;;6168453;23;20197;-81
2022/12/10 12:38:49;;;;;;;20.48;16.10;;;1.40;1.00;;;;;;6170046;23;21066;-81
2022/12/10 12:41:33;;;;;;;20.55;14.93;;;1.50;1.00;;;;;;6169278;23;20220;-79
2022/12/10 12:44:15;;;;;;;22.25;14.88;;;1.60;1.00;;;;;;6168759;23;20280;-78
2022/12/10 12:46:47;;;;;;;21.00;15.73;;;1.60;1.00;;;;;;6165622;23;20208;-81
2022/12/10 12:49:27;;;;;;;22.20;15.25;;;1.70;1.00;;;;;;6165254;23;20204;-80
2022/12/10 12:52:05;;;;;;;30.02;21.75;;;1.70;1.00;;;;;;6167049;23;20265;-77
2022/12/10 12:54:37;;;;;;;28.75;18.10;;;1.60;1.00;;;;;;6153617;23;25243;-81
2022/12/10 12:57:08;;;;;;;22.75;15.48;;;1.60;1.00;;;;;;6152020;23;20240;-79
2022/12/10 12:59:56;;;;;;;22.27;15.98;;;1.70;1.00;;;;;;6162364;23;20217;-79
2022/12/10 13:02:44;;;;;;;26.38;16.50;;;1.60;1.00;;;;;;6165027;23;20297;-77
2022/12/10 13:05:20;;;;;;;20.23;14.20;;;1.60;1.00;;;;;;6163468;23;20216;-75
2022/12/10 13:08:26;;;;;;;20.95;16.77;;;1.60;1.00;;;;;;6164241;23;20271;-77
2022/12/10 13:11:04;;;;;;;25.08;17.48;;;1.60;1.00;;;;;;6146290;23;20212;-83
2022/12/10 13:13:37;;;;;;;27.25;18.38;;;1.50;1.00;;;;;;6146953;23;20204;-79
2022/12/10 13:16:47;;;;;;;24.42;18.88;;;1.50;1.00;;;;;;6152043;23;20217;-84
2022/12/10 13:19:31;;;;;;;29.05;20.38;;;1.60;1.00;;;;;;6145701;23;20220;-84
2022/12/10 13:22:02;;;;;;;24.73;16.25;;;1.50;1.00;;;;;;6165599;23;20931;-84
2022/12/10 13:25:08;;;;;;;24.55;17.65;;;1.50;1.00;;;;;;6167394;23;21067;-84
2022/12/10 13:27:37;;;;;;;27.48;19.38;;;1.50;1.00;;;;;;6146354;23;20216;-82
2022/12/10 13:30:28;;;;;;;24.92;15.65;;;1.50;1.00;;;;;;6155050;23;20213;-83
2022/12/10 13:33:24;;;;;;;25.65;16.77;;;1.50;1.00;;;;;;6138673;23;20224;-85
2022/12/10 13:36:06;;;;;;;24.13;17.00;;;1.50;1.00;;;;;;6122133;23;20210;-86
2022/12/10 13:38:55;;;;;;;28.98;18.35;;;1.50;1.00;;;;;;6113548;23;20221;-83
2022/12/10 13:44:49;;;;;;;21.77;14.90;;;1.50;1.00;;;;;;6109547;23;20212;-84
2022/12/10 13:50:27;;;;;;;23.92;16.55;;;1.50;1.00;;;;;;6123601;23;20220;-84
2022/12/10 13:53:16;;;;;;;21.38;15.90;;;1.50;1.00;;;;;;6120215;23;20290;-82
2022/12/10 13:55:57;;;;;;;25.25;15.60;;;1.60;1.00;;;;;;6117929;23;20218;-83
2022/12/10 13:58:45;;;;;;;23.88;16.90;;;1.50;1.00;;;;;;6103379;23;20268;-84
2022/12/10 14:01:38;;;;;;;28.67;19.35;;;1.60;1.00;;;;;;6117787;23;20360;-82
2022/12/10 14:04:44;;;;;;;23.90;17.42;;;1.60;1.00;;;;;;6123660;23;20273;-82
2022/12/10 14:07:25;;;;;;;28.48;18.65;;;1.60;1.00;;;;;;6123545;23;20601;-88
2022/12/10 14:09:59;;;;;;;22.65;16.67;;;1.50;1.00;;;;;;6142716;23;20915;-84
2022/12/10 14:15:29;;;;;;;27.70;19.67;;;1.50;1.00;;;;;;6145024;23;20747;-85
2022/12/10 14:18:17;;;;;;;26.80;17.75;;;1.50;1.00;;;;;;6131209;23;20271;-83
2022/12/10 14:20:48;;;;;;;26.27;17.67;;;1.50;1.00;;;;;;6115706;23;20225;-86
2022/12/10 14:26:39;;;;;;;28.10;19.92;;;1.50;1.00;;;;;;6143287;23;20326;-82
2022/12/10 14:29:21;;;;;;;31.15;21.02;;;1.40;1.00;;;;;;6150306;23;20272;-82
2022/12/10 14:31:57;;;;;;;31.40;21.98;;;1.40;1.00;;;;;;6133720;23;20202;-86
2022/12/10 14:34:35;;;;;;;38.05;23.30;;;1.40;1.00;;;;;;6155268;23;21018;-85
2022/12/10 14:37:17;;;;;;;26.08;17.40;;;1.40;1.00;;;;;;6171720;23;20227;-85
2022/12/10 14:39:57;;;;;;;26.25;15.75;;;1.30;1.00;;;;;;6161696;23;20212;-83
2022/12/10 14:42:28;;;;;;;24.92;17.10;;;1.20;1.00;;;;;;6154461;23;20212;-83
2022/12/10 14:45:03;;;;;;;25.85;17.63;;;1.20;1.00;;;;;;6142877;23;20212;-82
2022/12/10 14:47:47;;;;;;;30.50;19.55;;;1.20;1.00;;;;;;6135349;23;20996;-84
2022/12/10 14:50:18;;;;;;;22.98;16.20;;;1.20;1.00;;;;;;6128872;23;20267;-85
2022/12/10 14:52:57;;;;;;;26.23;18.13;;;1.20;1.00;;;;;;6168674;23;20256;-83
2022/12/10 14:55:39;;;;;;;33.58;23.75;;;1.20;1.00;;;;;;6130570;23;20221;-84
2022/12/10 14:58:15;;;;;;;33.22;19.40;;;1.20;1.00;;;;;;6144025;23;20211;-83
2022/12/10 15:00:49;;;;;;;26.85;16.65;;;1.20;1.00;;;;;;6122581;23;20231;-83
2022/12/10 15:03:36;;;;;;;25.80;16.58;;;1.10;1.00;;;;;;6134452;23;20312;-82
2022/12/10 15:06:22;;;;;;;25.05;16.15;;;1.20;1.00;;;;;;6135652;23;20217;-85
2022/12/10 15:08:58;;;;;;;31.52;19.63;;;1.20;1.00;;;;;;6084506;23;20218;-83
2022/12/10 15:11:37;;;;;;;34.22;19.80;;;1.10;1.00;;;;;;6095880;23;20224;-82
2022/12/10 15:14:08;;;;;;;27.50;17.10;;;1.10;1.00;;;;;;6118989;23;21089;-83